Time;durP1;ratioP1;P1;durP2;ratioP2;P2;SDS_P1;SDS_P2;PMS_P1;PMS_P2;Temp;Humidity;BMP_temperature;BMP_pressure;BME280_temperature;BME280_humidity;BME280_pressure;Samples;Min_cycle;Max_cycle;Signal;HPM_P1;HPM_P2
2022/02/24 00:00:35;;;;;;;17.08;4.25;;;8.30;72.90;;;;;;5095332;28;20044;-80
2022/02/24 00:03:02;;;;;;;20.98;4.80;;;8.20;72.90;;;;;;5093714;28;20051;-80
2022/02/24 00:05:29;;;;;;;21.80;5.05;;;8.20;72.90;;;;;;5073189;28;20494;-80
2022/02/24 00:07:59;;;;;;;15.30;4.13;;;8.20;72.90;;;;;;5121096;27;20074;-80
2022/02/24 00:10:26;;;;;;;17.42;4.28;;;8.20;72.90;;;;;;5094311;28;20051;-80
2022/02/24 00:12:53;;;;;;;17.50;4.50;;;8.20;72.90;;;;;;5093946;28;20040;-80
2022/02/24 00:15:20;;;;;;;18.65;4.47;;;8.20;73.00;;;;;;5093393;28;20050;-80
2022/02/24 00:17:47;;;;;;;16.13;4.65;;;8.20;73.00;;;;;;5091320;28;20048;-80
2022/02/24 00:20:13;;;;;;;21.85;4.63;;;8.30;73.00;;;;;;5092797;28;20070;-80
2022/02/24 00:22:41;;;;;;;26.33;4.85;;;8.20;73.00;;;;;;5095287;28;20056;-80
2022/02/24 00:25:09;;;;;;;21.92;5.13;;;8.30;72.90;;;;;;5095066;28;20109;-80
2022/02/24 00:27:37;;;;;;;18.48;5.10;;;8.20;73.00;;;;;;5093260;28;20052;-80
2022/02/24 00:30:08;;;;;;;17.65;4.63;;;8.20;72.90;;;;;;5093260;28;20054;-80
2022/02/24 00:32:35;;;;;;;18.90;4.18;;;8.20;73.00;;;;;;5089489;28;20051;-80
2022/02/24 00:35:03;;;;;;;15.98;5.63;;;8.20;73.00;;;;;;5095637;28;20044;-80
2022/02/24 00:37:30;;;;;;;19.88;5.43;;;8.20;73.00;;;;;;5094546;28;20048;-80
2022/02/24 00:39:56;;;;;;;21.23;4.57;;;8.20;73.00;;;;;;5092929;28;20048;-81
2022/02/24 00:42:23;;;;;;;20.58;5.32;;;8.20;73.00;;;;;;5092899;28;20055;-80
2022/02/24 00:44:50;;;;;;;17.75;5.13;;;8.20;73.10;;;;;;5091419;28;20041;-80
2022/02/24 00:47:18;;;;;;;13.73;4.20;;;8.20;73.00;;;;;;5092020;28;20486;-80
2022/02/24 00:49:45;;;;;;;15.82;4.30;;;8.20;73.00;;;;;;5095367;28;20044;-80
2022/02/24 00:52:13;;;;;;;16.17;4.38;;;8.20;73.00;;;;;;5094369;28;20059;-80
2022/02/24 00:54:40;;;;;;;14.88;4.72;;;8.20;73.00;;;;;;5092752;28;20044;-80
2022/02/24 00:57:06;;;;;;;20.05;3.92;;;8.20;73.00;;;;;;5092608;28;20063;-80
2022/02/24 00:59:33;;;;;;;16.77;4.70;;;8.10;72.90;;;;;;5088866;28;20464;-80
2022/02/24 01:02:00;;;;;;;15.98;4.22;;;8.10;72.90;;;;;;5095731;28;20060;-80
2022/02/24 01:04:27;;;;;;;19.73;4.75;;;8.10;72.90;;;;;;5093523;28;20044;-80
2022/02/24 01:06:54;;;;;;;17.73;4.70;;;8.10;72.90;;;;;;5077660;28;20133;-80
2022/02/24 01:09:22;;;;;;;15.45;4.00;;;8.10;72.90;;;;;;5092510;28;20077;-80
2022/02/24 01:11:49;;;;;;;19.15;4.50;;;8.10;72.90;;;;;;5090483;28;20131;-80
2022/02/24 01:14:18;;;;;;;16.38;4.35;;;8.10;72.90;;;;;;5091544;28;20474;-80
2022/02/24 01:16:45;;;;;;;15.60;4.07;;;8.00;72.90;;;;;;5094991;28;20105;-80
2022/02/24 01:19:12;;;;;;;18.73;4.78;;;8.10;72.90;;;;;;5092365;28;20048;-80
2022/02/24 01:21:39;;;;;;;15.15;3.90;;;8.00;72.90;;;;;;5092336;28;20456;-80
2022/02/24 01:24:06;;;;;;;13.57;3.40;;;8.10;72.90;;;;;;5092430;28;20047;-80
2022/02/24 01:26:33;;;;;;;17.90;4.13;;;8.00;72.80;;;;;;5088218;28;20417;-81
2022/02/24 01:29:00;;;;;;;16.00;3.60;;;8.00;72.80;;;;;;5095795;28;20048;-79
2022/02/24 01:31:27;;;;;;;18.70;3.80;;;8.00;72.80;;;;;;5094441;28;20101;-80
2022/02/24 01:33:55;;;;;;;15.75;4.03;;;8.00;72.80;;;;;;5092051;28;20056;-80
2022/02/24 01:36:24;;;;;;;15.38;3.65;;;8.00;72.80;;;;;;5092249;28;20060;-80
2022/02/24 01:38:51;;;;;;;17.42;3.70;;;8.00;72.70;;;;;;5090865;28;20041;-80
2022/02/24 01:41:18;;;;;;;12.63;3.22;;;8.00;72.70;;;;;;5091182;28;20048;-80
2022/02/24 01:43:46;;;;;;;15.75;3.40;;;8.00;72.60;;;;;;5094878;28;20051;-80
2022/02/24 01:46:15;;;;;;;10.80;2.75;;;8.00;72.50;;;;;;5076902;28;20464;-80
2022/02/24 01:48:43;;;;;;;11.38;2.85;;;8.00;72.40;;;;;;5092077;28;20051;-80
2022/02/24 01:51:10;;;;;;;12.65;2.83;;;8.00;72.30;;;;;;5091994;28;20050;-80
2022/02/24 01:53:38;;;;;;;8.32;2.70;;;8.00;72.20;;;;;;5088694;28;20521;-80
2022/02/24 01:56:06;;;;;;;18.50;3.03;;;8.00;72.10;;;;;;5093787;28;20052;-80
2022/02/24 01:58:33;;;;;;;9.80;2.45;;;7.90;71.90;;;;;;5092926;28;20044;-80
2022/02/24 02:01:00;;;;;;;11.10;3.25;;;7.90;71.80;;;;;;5091623;28;20055;-80
2022/02/24 02:03:27;;;;;;;14.13;2.70;;;7.90;71.70;;;;;;5092206;28;20052;-80
2022/02/24 02:06:00;;;;;;;13.70;2.85;;;7.90;71.60;;;;;;5091712;28;20074;-80
2022/02/24 02:08:27;;;;;;;11.57;2.50;;;7.90;71.40;;;;;;5088519;28;20247;-80
2022/02/24 02:10:55;;;;;;;10.13;2.50;;;7.90;71.30;;;;;;5111848;28;20054;-80
2022/02/24 02:13:22;;;;;;;11.57;2.10;;;7.90;71.20;;;;;;5091808;28;20085;-80
2022/02/24 02:15:51;;;;;;;9.35;2.08;;;7.90;71.00;;;;;;5091622;28;20048;-80
2022/02/24 02:18:19;;;;;;;11.60;2.60;;;7.90;70.90;;;;;;5093481;28;20123;-80
2022/02/24 02:20:46;;;;;;;11.05;2.05;;;7.90;70.80;;;;;;5089641;28;20048;-81
2022/02/24 02:23:13;;;;;;;9.13;2.67;;;7.90;70.70;;;;;;5092117;28;20510;-80
2022/02/24 02:25:40;;;;;;;9.02;1.98;;;7.90;70.60;;;;;;5093703;28;20044;-80
2022/02/24 02:28:07;;;;;;;11.15;2.08;;;7.80;70.50;;;;;;5076653;28;20048;-80
2022/02/24 02:30:34;;;;;;;10.80;2.30;;;7.80;70.30;;;;;;5091251;28;20498;-80
2022/02/24 02:33:01;;;;;;;10.43;2.40;;;7.80;70.30;;;;;;5092522;28;20048;-80
2022/02/24 02:35:28;;;;;;;10.52;2.05;;;7.80;70.20;;;;;;5087989;28;20465;-80
2022/02/24 02:37:57;;;;;;;10.00;2.20;;;7.80;70.20;;;;;;5095877;28;20460;-79
2022/02/24 02:40:25;;;;;;;9.77;2.38;;;7.70;70.20;;;;;;5091697;28;20093;-80
2022/02/24 02:42:52;;;;;;;7.68;2.33;;;7.70;70.10;;;;;;5076725;28;20109;-80
2022/02/24 02:45:19;;;;;;;6.60;1.70;;;7.70;70.10;;;;;;5093740;28;20047;-79
2022/02/24 02:47:46;;;;;;;9.32;2.17;;;7.60;70.10;;;;;;5094652;28;20044;-80
2022/02/24 02:50:14;;;;;;;8.70;2.00;;;7.60;70.10;;;;;;5095363;28;20067;-80
2022/02/24 02:52:44;;;;;;;9.23;2.42;;;7.60;70.10;;;;;;5097684;28;20060;-80
2022/02/24 02:55:12;;;;;;;10.95;1.70;;;7.60;70.00;;;;;;5095004;28;20044;-80
2022/02/24 02:57:39;;;;;;;12.23;2.33;;;7.50;70.10;;;;;;5094840;28;20048;-80
2022/02/24 03:00:10;;;;;;;15.00;2.13;;;7.50;70.10;;;;;;5094843;28;20044;-80
2022/02/24 03:02:37;;;;;;;13.82;2.08;;;7.50;70.10;;;;;;5091714;28;20045;-80
2022/02/24 03:05:05;;;;;;;10.63;2.22;;;7.50;70.10;;;;;;5097317;28;20048;-80
2022/02/24 03:07:32;;;;;;;9.57;2.20;;;7.40;70.10;;;;;;5096493;28;20312;-80
2022/02/24 03:10:00;;;;;;;9.15;1.77;;;7.40;70.10;;;;;;5094783;28;20525;-80
2022/02/24 03:12:27;;;;;;;12.68;2.30;;;7.40;70.20;;;;;;5094431;28;20044;-79
2022/02/24 03:14:54;;;;;;;6.47;1.70;;;7.40;70.20;;;;;;5095242;28;20096;-80
2022/02/24 03:17:22;;;;;;;13.48;2.58;;;7.40;70.30;;;;;;5092860;28;20055;-80
2022/02/24 03:19:50;;;;;;;9.85;2.13;;;7.40;70.30;;;;;;5097993;28;20473;-80
2022/02/24 03:22:17;;;;;;;10.95;2.65;;;7.30;70.40;;;;;;5094689;28;20052;-80
2022/02/24 03:24:44;;;;;;;10.07;2.05;;;7.30;70.50;;;;;;5094468;28;20051;-80
2022/02/24 03:27:12;;;;;;;11.63;2.33;;;7.30;70.50;;;;;;5094219;28;20052;-80
2022/02/24 03:29:39;;;;;;;12.07;2.05;;;7.20;70.60;;;;;;5091136;28;20119;-80
2022/02/24 03:32:06;;;;;;;11.93;2.40;;;7.20;70.70;;;;;;5096100;28;20052;-80
2022/02/24 03:34:34;;;;;;;12.93;2.80;;;7.20;70.80;;;;;;5095212;28;20062;-80
2022/02/24 03:37:01;;;;;;;11.55;2.38;;;7.10;70.90;;;;;;5094427;28;20056;-80
2022/02/24 03:39:28;;;;;;;8.90;2.33;;;7.10;71.00;;;;;;5094159;28;20387;-80
2022/02/24 03:41:56;;;;;;;11.80;2.63;;;7.10;71.10;;;;;;5093150;28;20051;-80
2022/02/24 03:44:23;;;;;;;11.43;2.72;;;7.00;71.20;;;;;;5091770;28;20040;-81
2022/02/24 03:46:51;;;;;;;13.85;2.65;;;7.00;71.30;;;;;;5097667;28;20052;-79
2022/02/24 03:49:38;;;;;;;15.88;3.47;;;6.90;71.50;;;;;;5097779;28;20387;-79
2022/02/24 03:52:06;;;;;;;19.05;3.38;;;6.90;71.60;;;;;;5093781;28;20056;-81
2022/02/24 03:54:33;;;;;;;10.25;2.50;;;6.90;71.70;;;;;;5094004;28;20472;-81
2022/02/24 03:57:00;;;;;;;17.60;3.80;;;6.90;71.80;;;;;;5091974;28;20433;-82
2022/02/24 03:59:27;;;;;;;17.27;3.15;;;6.90;71.90;;;;;;5090298;28;20047;-80
2022/02/24 04:01:56;;;;;;;11.45;2.45;;;6.80;72.10;;;;;;5079939;28;20101;-81
2022/02/24 04:04:24;;;;;;;14.38;3.92;;;6.80;72.20;;;;;;5093636;28;20041;-80
2022/02/24 04:06:50;;;;;;;15.40;3.60;;;6.80;72.30;;;;;;5095349;28;20051;-80
2022/02/24 04:09:17;;;;;;;16.55;3.50;;;6.80;72.40;;;;;;5093586;28;20047;-80
2022/02/24 04:11:44;;;;;;;12.90;3.22;;;6.70;72.50;;;;;;5090857;28;20098;-80
2022/02/24 04:14:11;;;;;;;15.23;3.75;;;6.70;72.60;;;;;;5094240;28;20048;-80
2022/02/24 04:16:38;;;;;;;18.33;4.13;;;6.70;72.70;;;;;;5095385;28;20048;-80
2022/02/24 04:19:07;;;;;;;19.05;3.90;;;6.70;72.90;;;;;;5093474;28;20040;-79
2022/02/24 04:21:35;;;;;;;14.77;3.80;;;6.70;73.00;;;;;;5093279;28;20521;-80
2022/02/24 04:24:03;;;;;;;19.05;4.05;;;6.60;73.10;;;;;;5093519;28;20070;-80
2022/02/24 04:26:30;;;;;;;15.57;3.88;;;6.70;73.20;;;;;;5072770;28;20040;-80
2022/02/24 04:28:57;;;;;;;18.13;3.85;;;6.60;73.30;;;;;;5104703;28;20054;-80
2022/02/24 04:31:24;;;;;;;16.30;4.00;;;6.60;73.40;;;;;;5093460;28;20052;-80
2022/02/24 04:33:51;;;;;;;18.80;3.65;;;6.60;73.50;;;;;;5092959;28;20039;-80
2022/02/24 04:36:18;;;;;;;14.38;4.00;;;6.60;73.60;;;;;;5093077;28;20066;-80
2022/02/24 04:38:46;;;;;;;18.20;3.72;;;6.60;73.70;;;;;;5090658;28;20047;-80
2022/02/24 04:41:13;;;;;;;17.45;3.95;;;6.60;73.80;;;;;;5092835;28;20051;-80
2022/02/24 04:43:40;;;;;;;15.93;4.20;;;6.60;73.90;;;;;;5094998;28;20051;-80
2022/02/24 04:46:07;;;;;;;15.23;3.95;;;6.60;73.90;;;;;;5076745;28;20060;-80
2022/02/24 04:48:34;;;;;;;20.25;4.25;;;6.50;74.00;;;;;;5092815;28;20074;-80
2022/02/24 04:51:01;;;;;;;22.05;4.63;;;6.50;74.10;;;;;;5092408;28;20507;-80
2022/02/24 04:53:28;;;;;;;15.25;3.67;;;6.50;74.10;;;;;;5088924;28;20062;-80
2022/02/24 04:55:55;;;;;;;19.90;4.63;;;6.50;74.20;;;;;;5096464;28;20098;-80
2022/02/24 04:58:22;;;;;;;21.08;4.82;;;6.50;74.30;;;;;;5092762;28;20051;-80
2022/02/24 05:00:49;;;;;;;14.82;3.97;;;6.50;74.40;;;;;;5092818;28;20044;-80
2022/02/24 05:03:17;;;;;;;22.55;5.65;;;6.50;74.40;;;;;;5092875;28;20123;-81
2022/02/24 05:05:45;;;;;;;18.92;4.10;;;6.50;74.50;;;;;;5090041;28;20044;-80
2022/02/24 05:08:12;;;;;;;19.02;5.05;;;6.40;74.60;;;;;;5093029;28;20072;-82
2022/02/24 05:10:39;;;;;;;18.17;4.20;;;6.50;74.70;;;;;;5094040;28;20433;-79
2022/02/24 05:13:06;;;;;;;21.73;4.72;;;6.50;74.70;;;;;;5092508;28;20052;-81
2022/02/24 05:15:33;;;;;;;17.30;4.80;;;6.40;74.80;;;;;;5093853;28;20056;-81
2022/02/24 05:18:00;;;;;;;21.63;4.75;;;6.40;74.90;;;;;;5091999;28;20043;-80
2022/02/24 05:20:29;;;;;;;14.20;3.95;;;6.40;74.90;;;;;;5072117;28;20097;-80
2022/02/24 05:22:56;;;;;;;21.80;4.65;;;6.40;75.00;;;;;;5096392;28;20058;-79
2022/02/24 05:25:23;;;;;;;18.02;5.05;;;6.40;75.00;;;;;;5094014;28;20048;-79
2022/02/24 05:27:51;;;;;;;14.50;4.93;;;6.40;75.10;;;;;;5092169;28;20048;-80
2022/02/24 05:30:18;;;;;;;15.80;4.43;;;6.40;75.20;;;;;;5092243;28;20044;-80
2022/02/24 05:32:45;;;;;;;24.25;4.30;;;6.40;75.20;;;;;;5089794;28;20041;-80
2022/02/24 05:35:12;;;;;;;20.15;4.97;;;6.40;75.30;;;;;;5092722;28;20048;-80
2022/02/24 05:37:42;;;;;;;17.65;4.28;;;6.40;75.40;;;;;;5094104;28;20052;-80
2022/02/24 05:40:09;;;;;;;23.17;5.40;;;6.40;75.40;;;;;;5092127;28;20055;-80
2022/02/24 05:42:36;;;;;;;17.48;4.10;;;6.40;75.50;;;;;;5092171;28;20114;-80
2022/02/24 05:45:03;;;;;;;18.00;4.10;;;6.40;75.60;;;;;;5092173;28;20051;-80
2022/02/24 05:47:30;;;;;;;18.00;4.00;;;6.40;75.60;;;;;;5072450;28;20048;-80
2022/02/24 05:49:57;;;;;;;22.25;4.40;;;6.40;75.70;;;;;;5096366;28;20040;-80
2022/02/24 05:52:23;;;;;;;18.20;4.82;;;6.40;75.80;;;;;;5091484;28;20063;-80
2022/02/24 05:54:50;;;;;;;15.00;3.92;;;6.40;75.80;;;;;;5077121;28;20051;-80
2022/02/24 05:57:18;;;;;;;17.58;4.45;;;6.40;75.90;;;;;;5091904;28;20048;-79
2022/02/24 05:59:46;;;;;;;13.18;4.25;;;6.40;75.90;;;;;;5089626;28;20498;-80
2022/02/24 06:02:13;;;;;;;15.43;4.05;;;6.40;76.00;;;;;;5092220;28;20060;-80
2022/02/24 06:04:40;;;;;;;22.77;4.22;;;6.40;76.00;;;;;;5096102;28;20052;-80
2022/02/24 06:07:07;;;;;;;18.00;4.25;;;6.50;76.00;;;;;;5091647;28;20048;-80
2022/02/24 06:09:34;;;;;;;17.40;3.90;;;6.40;76.10;;;;;;5091916;28;20048;-80
2022/02/24 06:12:02;;;;;;;23.10;4.20;;;6.50;76.10;;;;;;5091668;28;20109;-80
2022/02/24 06:14:29;;;;;;;16.50;3.92;;;6.50;76.10;;;;;;5088228;28;20044;-81
2022/02/24 06:16:57;;;;;;;25.60;4.88;;;6.50;76.10;;;;;;5101060;28;20473;-80
2022/02/24 06:19:24;;;;;;;17.55;4.22;;;6.50;76.10;;;;;;5093041;28;20067;-80
2022/02/24 06:21:52;;;;;;;20.48;4.35;;;6.50;76.10;;;;;;5095544;28;20048;-80
2022/02/24 06:24:19;;;;;;;13.25;3.47;;;6.50;76.10;;;;;;5095863;28;20062;-80
2022/02/24 06:26:47;;;;;;;19.05;4.18;;;6.50;76.10;;;;;;5093311;28;20506;-79
2022/02/24 06:29:13;;;;;;;17.75;4.05;;;6.50;76.10;;;;;;5095608;28;20228;-80
2022/02/24 06:31:41;;;;;;;16.73;3.95;;;6.50;76.10;;;;;;5099811;28;20105;-80
2022/02/24 06:34:08;;;;;;;19.90;4.05;;;6.60;76.10;;;;;;5095436;28;20048;-80
2022/02/24 06:36:35;;;;;;;19.35;4.10;;;6.60;76.10;;;;;;5095346;28;20040;-79
2022/02/24 06:39:04;;;;;;;18.63;4.13;;;6.60;76.10;;;;;;5095336;28;20061;-80
2022/02/24 06:41:31;;;;;;;18.83;4.90;;;6.60;76.10;;;;;;5075472;28;20101;-80
2022/02/24 06:43:58;;;;;;;16.55;3.60;;;6.60;76.10;;;;;;5106961;28;20513;-80
2022/02/24 06:46:25;;;;;;;20.38;4.20;;;6.60;76.10;;;;;;5095285;28;20051;-80
2022/02/24 06:48:53;;;;;;;20.65;3.83;;;6.60;76.10;;;;;;5095328;28;20044;-81
2022/02/24 06:51:20;;;;;;;17.05;3.97;;;6.70;76.10;;;;;;5094836;28;20051;-79
2022/02/24 06:53:47;;;;;;;20.63;4.05;;;6.60;76.10;;;;;;5092822;28;20075;-80
2022/02/24 06:56:14;;;;;;;18.13;4.15;;;6.70;76.10;;;;;;5095436;28;20048;-81
2022/02/24 06:58:42;;;;;;;17.33;3.97;;;6.70;76.10;;;;;;5092809;28;20509;-81
2022/02/24 07:01:09;;;;;;;14.85;3.65;;;6.70;76.10;;;;;;5094258;28;20044;-81
2022/02/24 07:03:37;;;;;;;17.33;4.35;;;6.70;76.10;;;;;;5099254;28;20056;-80
2022/02/24 07:06:04;;;;;;;20.58;4.00;;;6.70;76.10;;;;;;5106091;28;20091;-80
2022/02/24 07:08:31;;;;;;;14.73;3.85;;;6.70;76.10;;;;;;5074547;28;20044;-80
2022/02/24 07:10:58;;;;;;;16.35;4.20;;;6.70;76.10;;;;;;5106345;28;20561;-80
2022/02/24 07:13:25;;;;;;;18.20;3.90;;;6.70;76.10;;;;;;5094682;28;20117;-80
2022/02/24 07:16:12;;;;;;;16.00;3.60;;;6.70;76.10;;;;;;5104326;28;20074;-81
2022/02/24 07:18:39;;;;;;;15.10;3.95;;;6.80;76.10;;;;;;5101241;28;20043;-80
2022/02/24 07:21:08;;;;;;;17.70;3.83;;;6.70;76.10;;;;;;5095752;28;20039;-80
2022/02/24 07:23:35;;;;;;;15.93;3.33;;;6.80;76.10;;;;;;5090306;28;20421;-81
2022/02/24 07:26:02;;;;;;;22.27;3.95;;;6.80;76.10;;;;;;5097812;28;20105;-80
2022/02/24 07:28:29;;;;;;;21.33;4.07;;;6.80;76.10;;;;;;5096944;28;20525;-80
2022/02/24 07:30:56;;;;;;;16.23;3.63;;;6.80;76.10;;;;;;5099301;28;20458;-81
2022/02/24 07:33:23;;;;;;;13.85;4.05;;;6.80;76.10;;;;;;5104175;28;20735;-80
2022/02/24 07:35:50;;;;;;;19.58;3.80;;;6.80;76.10;;;;;;5092217;28;20560;-80
2022/02/24 07:38:18;;;;;;;14.50;3.67;;;6.80;76.10;;;;;;5093089;28;20437;-80
2022/02/24 07:40:44;;;;;;;20.52;4.05;;;6.80;76.10;;;;;;5096486;28;20051;-80
2022/02/24 07:43:12;;;;;;;19.85;3.78;;;6.80;76.10;;;;;;5093963;28;20064;-79
2022/02/24 07:45:39;;;;;;;18.65;3.97;;;6.80;76.10;;;;;;5093611;28;20501;-79
2022/02/24 07:48:06;;;;;;;15.52;3.63;;;6.80;76.10;;;;;;5095232;28;20101;-80
2022/02/24 07:50:33;;;;;;;16.98;3.50;;;6.90;76.00;;;;;;5089540;28;20036;-80
2022/02/24 07:53:01;;;;;;;16.25;3.58;;;6.90;76.00;;;;;;5111296;28;20056;-80
2022/02/24 07:55:29;;;;;;;18.08;3.80;;;6.90;76.00;;;;;;5093467;28;20513;-80
2022/02/24 07:57:56;;;;;;;14.13;3.67;;;6.90;76.00;;;;;;5093429;28;20581;-80
2022/02/24 08:00:23;;;;;;;15.10;3.40;;;6.90;76.00;;;;;;5094973;28;20479;-80
2022/02/24 08:02:51;;;;;;;15.88;3.67;;;6.90;76.00;;;;;;5091450;28;20040;-80
2022/02/24 08:05:19;;;;;;;17.30;3.47;;;6.90;76.00;;;;;;5092548;28;20131;-80
2022/02/24 08:07:46;;;;;;;15.40;4.20;;;6.90;76.00;;;;;;5095929;28;20048;-80
2022/02/24 08:10:13;;;;;;;15.63;3.50;;;6.90;76.00;;;;;;5075463;28;20048;-79
2022/02/24 08:12:42;;;;;;;15.55;3.35;;;6.90;76.00;;;;;;5095086;28;20047;-80
2022/02/24 08:15:11;;;;;;;12.52;3.70;;;6.90;76.00;;;;;;5093283;28;20054;-80
2022/02/24 08:17:39;;;;;;;16.17;3.85;;;6.90;76.00;;;;;;5089442;28;20041;-80
2022/02/24 08:20:07;;;;;;;14.23;3.30;;;6.90;76.00;;;;;;5095139;28;20109;-80
2022/02/24 08:22:36;;;;;;;14.55;3.17;;;7.00;76.00;;;;;;5109491;27;20086;-80
2022/02/24 08:25:05;;;;;;;19.52;3.50;;;7.00;76.00;;;;;;5093183;28;20097;-81
2022/02/24 08:27:34;;;;;;;18.58;3.95;;;7.00;76.10;;;;;;5092915;28;20387;-79
2022/02/24 08:30:03;;;;;;;15.88;3.55;;;7.00;76.10;;;;;;5092910;28;20055;-81
2022/02/24 08:32:31;;;;;;;20.75;3.97;;;7.00;76.10;;;;;;5072994;28;20059;-81
2022/02/24 08:34:58;;;;;;;18.27;3.53;;;7.00;76.20;;;;;;5104758;28;20047;-81
2022/02/24 08:37:26;;;;;;;14.23;3.80;;;7.10;76.20;;;;;;5093169;28;20052;-81
2022/02/24 08:39:53;;;;;;;17.92;4.43;;;7.10;76.20;;;;;;5093208;28;20047;-81
2022/02/24 08:42:25;;;;;;;16.30;3.42;;;7.10;76.20;;;;;;5092739;28;20051;-81
2022/02/24 08:44:53;;;;;;;18.13;4.10;;;7.10;76.30;;;;;;5091461;28;20510;-81
2022/02/24 08:47:33;;;;;;;15.13;3.30;;;7.10;76.30;;;;;;5072440;28;20040;-81
2022/02/24 08:50:03;;;;;;;18.83;3.75;;;7.10;76.30;;;;;;5097140;28;20040;-80
2022/02/24 08:52:51;;;;;;;14.30;3.63;;;7.20;76.40;;;;;;5096015;28;20093;-80
2022/02/24 08:55:18;;;;;;;19.42;3.78;;;7.20;76.40;;;;;;5093009;28;20055;-80
2022/02/24 08:57:45;;;;;;;15.73;3.38;;;7.20;76.50;;;;;;5092609;28;20044;-80
2022/02/24 09:00:12;;;;;;;14.80;3.15;;;7.30;76.50;;;;;;5092757;28;20047;-80
2022/02/24 09:02:39;;;;;;;16.42;3.33;;;7.30;76.50;;;;;;5089066;28;20044;-79
2022/02/24 09:05:06;;;;;;;16.60;3.80;;;7.30;76.60;;;;;;5095042;28;20059;-80
2022/02/24 09:07:34;;;;;;;11.52;3.33;;;7.30;76.60;;;;;;5094339;28;20135;-80
2022/02/24 09:10:21;;;;;;;17.48;4.25;;;7.40;76.70;;;;;;5092749;28;20044;-80
2022/02/24 09:12:48;;;;;;;13.52;3.35;;;7.40;76.70;;;;;;5092548;28;20418;-80
2022/02/24 09:15:15;;;;;;;13.63;2.85;;;7.40;76.70;;;;;;5092044;28;20475;-80
2022/02/24 09:17:42;;;;;;;16.83;3.67;;;7.50;76.80;;;;;;5091099;28;20048;-80
2022/02/24 09:20:10;;;;;;;15.15;3.22;;;7.50;76.80;;;;;;5093652;28;20055;-80
2022/02/24 09:22:37;;;;;;;16.90;3.42;;;7.60;76.80;;;;;;5094378;28;20048;-80
2022/02/24 09:25:05;;;;;;;13.25;3.13;;;7.60;76.80;;;;;;5092483;28;20048;-80
2022/02/24 09:27:32;;;;;;;13.32;3.00;;;7.70;76.80;;;;;;5092320;28;20456;-80
2022/02/24 09:29:59;;;;;;;12.82;3.30;;;7.80;76.80;;;;;;5091456;28;20101;-80
2022/02/24 09:32:26;;;;;;;13.55;3.95;;;7.90;76.80;;;;;;5089509;28;20098;-80
2022/02/24 09:34:53;;;;;;;9.23;2.83;;;7.90;76.70;;;;;;5096229;28;20525;-80
2022/02/24 09:37:20;;;;;;;16.20;3.08;;;8.00;76.70;;;;;;5093427;28;20051;-80
2022/02/24 09:39:47;;;;;;;11.07;3.13;;;8.10;76.70;;;;;;5092074;28;20570;-80
2022/02/24 09:42:14;;;;;;;18.17;3.70;;;8.20;76.60;;;;;;5092270;28;20100;-80
2022/02/24 09:44:42;;;;;;;19.48;4.03;;;8.30;76.60;;;;;;5088921;28;20164;-79
2022/02/24 09:47:10;;;;;;;17.02;3.15;;;8.40;76.50;;;;;;5093064;28;20127;-80
2022/02/24 09:49:39;;;;;;;13.70;3.55;;;8.40;76.40;;;;;;5088682;28;20505;-80
2022/02/24 09:52:07;;;;;;;12.38;3.20;;;8.60;76.30;;;;;;5088309;28;20048;-80
2022/02/24 09:54:34;;;;;;;15.75;3.00;;;8.70;76.20;;;;;;5090441;28;20048;-80
2022/02/24 09:57:01;;;;;;;15.00;3.78;;;8.80;76.10;;;;;;5090258;28;20039;-80
2022/02/24 09:59:28;;;;;;;14.10;3.38;;;8.90;75.90;;;;;;5092280;28;20449;-80
2022/02/24 10:01:55;;;;;;;16.92;3.17;;;9.00;75.70;;;;;;5082386;28;20452;-80
2022/02/24 10:04:25;;;;;;;12.60;3.45;;;9.10;75.60;;;;;;5095855;28;20048;-80
2022/02/24 10:06:52;;;;;;;12.40;3.15;;;9.20;75.40;;;;;;5101411;28;20082;-80
2022/02/24 10:09:31;;;;;;;15.98;3.65;;;9.40;75.20;;;;;;5089017;28;20048;-80
2022/02/24 10:12:06;;;;;;;12.55;3.33;;;9.50;74.90;;;;;;5091612;28;20051;-80
2022/02/24 10:14:34;;;;;;;11.52;2.85;;;9.60;74.70;;;;;;5076842;28;20387;-80
2022/02/24 10:17:07;;;;;;;9.85;3.13;;;9.80;74.50;;;;;;5099739;28;20468;-80
2022/02/24 10:19:46;;;;;;;13.40;2.97;;;9.90;74.30;;;;;;5098704;28;20663;-79
2022/02/24 10:22:14;;;;;;;15.65;4.05;;;9.90;74.00;;;;;;5095528;28;20048;-80
2022/02/24 10:24:43;;;;;;;15.25;3.40;;;10.00;73.70;;;;;;5095554;28;20555;-80
2022/02/24 10:27:22;;;;;;;19.05;4.38;;;10.00;73.60;;;;;;5086464;28;20425;-80
2022/02/24 10:30:13;;;;;;;12.73;4.35;;;10.10;73.40;;;;;;5093240;28;20045;-80
2022/02/24 10:32:45;;;;;;;15.27;4.43;;;10.10;73.20;;;;;;5076988;28;20071;-80
2022/02/24 10:35:24;;;;;;;14.77;3.95;;;10.20;73.20;;;;;;5096039;28;20051;-80
2022/02/24 10:38:11;;;;;;;10.95;3.90;;;10.10;73.00;;;;;;5098939;28;20048;-80
2022/02/24 10:40:48;;;;;;;18.00;4.10;;;10.20;73.00;;;;;;5098882;28;20390;-79
2022/02/24 10:43:15;;;;;;;15.95;4.03;;;10.10;72.90;;;;;;5102261;28;20505;-79
2022/02/24 10:45:46;;;;;;;19.25;4.88;;;10.20;72.90;;;;;;5101467;28;20044;-79
2022/02/24 10:48:13;;;;;;;16.55;7.28;;;10.20;72.90;;;;;;5095214;28;20100;-80
2022/02/24 10:51:06;;;;;;;17.27;5.70;;;10.20;72.90;;;;;;5091378;28;20044;-79
2022/02/24 10:53:35;;;;;;;11.27;3.80;;;10.20;72.90;;;;;;5082901;28;20130;-80
2022/02/24 10:56:06;;;;;;;11.68;3.78;;;10.20;72.90;;;;;;5106916;28;20051;-80
2022/02/24 10:58:41;;;;;;;12.68;4.20;;;10.20;73.00;;;;;;5095692;28;20056;-79
2022/02/24 11:01:18;;;;;;;14.52;3.70;;;10.20;72.90;;;;;;5094967;28;20045;-79
2022/02/24 11:03:47;;;;;;;11.05;3.70;;;10.20;72.90;;;;;;5094800;28;20066;-79
2022/02/24 11:06:18;;;;;;;17.10;5.40;;;10.20;72.90;;;;;;5094122;28;20070;-78
2022/02/24 11:08:45;;;;;;;19.30;4.47;;;10.30;72.90;;;;;;5092068;28;20049;-79
2022/02/24 11:11:27;;;;;;;11.32;3.38;;;10.30;73.00;;;;;;5094871;28;20048;-79
2022/02/24 11:13:57;;;;;;;10.73;2.80;;;10.40;73.10;;;;;;5098040;28;20086;-79
2022/02/24 11:16:26;;;;;;;19.15;3.70;;;10.40;73.10;;;;;;5096177;28;20517;-80
2022/02/24 11:18:57;;;;;;;13.20;2.95;;;10.40;73.20;;;;;;5094264;28;20086;-79
2022/02/24 11:21:25;;;;;;;15.48;3.45;;;10.40;73.20;;;;;;5093939;28;20090;-80
2022/02/24 11:23:53;;;;;;;10.55;3.00;;;10.50;73.20;;;;;;5092656;28;20044;-79
2022/02/24 11:26:21;;;;;;;14.27;3.05;;;10.50;73.10;;;;;;5092776;28;20047;-80
2022/02/24 11:29:10;;;;;;;11.27;2.47;;;10.60;73.00;;;;;;5096785;28;20044;-80
2022/02/24 11:32:05;;;;;;;10.18;2.45;;;10.60;72.90;;;;;;5097743;28;20134;-79
2022/02/24 11:35:00;;;;;;;14.88;2.72;;;10.60;72.90;;;;;;5095450;28;20047;-79
2022/02/24 11:37:27;;;;;;;6.97;2.22;;;10.60;72.80;;;;;;5097087;28;20052;-79
2022/02/24 11:40:00;;;;;;;8.65;2.13;;;10.60;72.80;;;;;;5093676;28;20043;-79
2022/02/24 11:42:29;;;;;;;8.60;2.30;;;10.60;72.90;;;;;;5094749;28;20043;-80
2022/02/24 11:44:57;;;;;;;10.15;2.70;;;10.50;73.00;;;;;;5105950;28;20505;-79
2022/02/24 11:47:26;;;;;;;10.88;2.28;;;10.50;73.20;;;;;;5091662;28;20048;-80
2022/02/24 11:49:53;;;;;;;8.88;2.25;;;10.50;73.50;;;;;;5097077;28;20048;-79
2022/02/24 11:52:28;;;;;;;10.85;2.58;;;10.40;73.80;;;;;;5093854;28;20051;-80
2022/02/24 11:54:58;;;;;;;11.38;3.10;;;10.40;74.20;;;;;;5095171;28;20052;-79
2022/02/24 11:57:36;;;;;;;13.88;2.58;;;10.40;74.50;;;;;;5093379;28;20048;-80
2022/02/24 12:00:17;;;;;;;9.85;2.55;;;10.40;74.70;;;;;;5093505;28;20578;-79
2022/02/24 12:02:49;;;;;;;13.20;2.38;;;10.30;75.00;;;;;;5080139;28;20059;-79
2022/02/24 12:05:29;;;;;;;10.13;2.72;;;10.30;75.30;;;;;;5092330;28;20048;-80
2022/02/24 12:08:04;;;;;;;8.43;2.17;;;10.20;75.50;;;;;;5097508;28;20417;-79
2022/02/24 12:10:47;;;;;;;12.07;2.50;;;10.20;75.70;;;;;;5094817;28;20052;-79
2022/02/24 12:13:25;;;;;;;8.77;2.38;;;10.20;76.00;;;;;;5093017;28;20048;-80
2022/02/24 12:16:22;;;;;;;6.90;2.00;;;10.10;76.20;;;;;;5093329;28;20043;-79
2022/02/24 12:18:51;;;;;;;11.68;2.30;;;10.10;76.40;;;;;;5093011;28;20040;-79
2022/02/24 12:21:29;;;;;;;7.90;2.08;;;10.00;76.60;;;;;;5093090;28;20039;-79
2022/02/24 12:23:59;;;;;;;8.55;2.03;;;9.90;76.90;;;;;;5091592;28;20104;-79
2022/02/24 12:27:01;;;;;;;9.07;1.80;;;9.90;77.10;;;;;;5089974;28;20048;-79
2022/02/24 12:29:39;;;;;;;5.35;1.35;;;9.90;77.20;;;;;;5102450;28;20048;-80
2022/02/24 12:32:06;;;;;;;7.53;1.45;;;9.80;77.10;;;;;;5104812;28;20055;-79
2022/02/24 12:34:34;;;;;;;9.43;1.40;;;9.70;76.90;;;;;;5095561;28;20497;-80
2022/02/24 12:37:16;;;;;;;7.50;1.35;;;9.60;76.60;;;;;;5093087;28;20052;-81
2022/02/24 12:39:43;;;;;;;9.90;1.52;;;9.50;76.50;;;;;;5092254;28;20039;-81
2022/02/24 12:42:13;;;;;;;6.13;1.15;;;9.40;76.30;;;;;;5077588;28;20467;-81
2022/02/24 12:44:41;;;;;;;7.95;1.20;;;9.40;76.20;;;;;;5103717;28;20047;-79
2022/02/24 12:47:08;;;;;;;7.95;1.00;;;9.30;76.10;;;;;;5094379;28;20075;-81
2022/02/24 12:49:52;;;;;;;6.35;1.00;;;9.10;76.10;;;;;;5093486;28;20063;-80
2022/02/24 12:52:21;;;;;;;6.45;0.93;;;9.00;76.10;;;;;;5092592;28;20085;-80
2022/02/24 12:54:48;;;;;;;4.80;0.90;;;8.90;76.10;;;;;;5093531;28;20044;-80